sensor_id;sensor_type;location;lat;lon;timestamp;pressure;altitude;pressure_sealevel;temperature;humidity
72061;BME280;59925;52.136;5.420;2022-09-01T00:00:00;102365.44;;;14.77;66.18
72061;BME280;59925;52.136;5.420;2022-09-01T00:02:28;102369.19;;;14.70;66.46
72061;BME280;59925;52.136;5.420;2022-09-01T00:04:55;102363.22;;;14.68;66.71
72061;BME280;59925;52.136;5.420;2022-09-01T00:07:28;102364.00;;;14.64;66.56
72061;BME280;59925;52.136;5.420;2022-09-01T00:10:03;102354.78;;;14.60;67.04
72061;BME280;59925;52.136;5.420;2022-09-01T00:12:30;102354.44;;;14.51;67.49
72061;BME280;59925;52.136;5.420;2022-09-01T00:14:56;102358.75;;;14.47;67.94
72061;BME280;59925;52.136;5.420;2022-09-01T00:17:24;102350.31;;;14.43;67.88
72061;BME280;59925;52.136;5.420;2022-09-01T00:19:50;102363.28;;;14.41;68.35
72061;BME280;59925;52.136;5.420;2022-09-01T00:22:17;102355.44;;;14.39;68.54
72061;BME280;59925;52.136;5.420;2022-09-01T00:24:43;102350.25;;;14.33;68.87
72061;BME280;59925;52.136;5.420;2022-09-01T00:27:10;102349.41;;;14.27;69.12
72061;BME280;59925;52.136;5.420;2022-09-01T00:29:38;102352.38;;;14.25;68.99
72061;BME280;59925;52.136;5.420;2022-09-01T00:32:09;102351.81;;;14.23;69.07
72061;BME280;59925;52.136;5.420;2022-09-01T00:34:36;102348.56;;;14.21;69.24
72061;BME280;59925;52.136;5.420;2022-09-01T00:37:02;102353.88;;;14.16;69.22
72061;BME280;59925;52.136;5.420;2022-09-01T00:39:29;102351.47;;;14.15;69.30
72061;BME280;59925;52.136;5.420;2022-09-01T00:41:55;102350.91;;;14.13;69.59
72061;BME280;59925;52.136;5.420;2022-09-01T00:44:24;102354.94;;;14.10;69.70
72061;BME280;59925;52.136;5.420;2022-09-01T00:46:57;102341.94;;;14.07;69.66
72061;BME280;59925;52.136;5.420;2022-09-01T00:49:28;102348.69;;;14.04;69.83
72061;BME280;59925;52.136;5.420;2022-09-01T00:52:07;102335.69;;;14.01;70.03
72061;BME280;59925;52.136;5.420;2022-09-01T00:54:39;102344.00;;;13.94;70.11
72061;BME280;59925;52.136;5.420;2022-09-01T00:57:07;102338.03;;;13.92;70.14
72061;BME280;59925;52.136;5.420;2022-09-01T00:59:38;102336.94;;;13.88;70.62
72061;BME280;59925;52.136;5.420;2022-09-01T01:02:07;102337.44;;;13.85;70.90
72061;BME280;59925;52.136;5.420;2022-09-01T01:04:36;102347.66;;;13.83;70.78
72061;BME280;59925;52.136;5.420;2022-09-01T01:07:03;102342.53;;;13.82;71.04
72061;BME280;59925;52.136;5.420;2022-09-01T01:09:38;102338.44;;;13.79;71.05
72061;BME280;59925;52.136;5.420;2022-09-01T01:12:08;102333.59;;;13.76;70.85
72061;BME280;59925;52.136;5.420;2022-09-01T01:14:39;102334.09;;;13.73;71.17
72061;BME280;59925;52.136;5.420;2022-09-01T01:17:11;102328.41;;;13.69;71.08
72061;BME280;59925;52.136;5.420;2022-09-01T01:19:43;102334.28;;;13.66;71.47
72061;BME280;59925;52.136;5.420;2022-09-01T01:30:47;102326.34;;;13.54;71.02
72061;BME280;59925;52.136;5.420;2022-09-01T01:33:24;102331.72;;;13.54;70.79
72061;BME280;59925;52.136;5.420;2022-09-01T01:35:52;102330.09;;;13.53;71.08
72061;BME280;59925;52.136;5.420;2022-09-01T01:38:20;102328.47;;;13.52;70.78
72061;BME280;59925;52.136;5.420;2022-09-01T01:40:49;102326.31;;;13.49;70.95
72061;BME280;59925;52.136;5.420;2022-09-01T01:43:16;102322.47;;;13.45;71.35
72061;BME280;59925;52.136;5.420;2022-09-01T01:45:48;102328.09;;;13.43;71.10
72061;BME280;59925;52.136;5.420;2022-09-01T01:48:18;102321.34;;;13.41;71.18
72061;BME280;59925;52.136;5.420;2022-09-01T01:50:51;102325.94;;;13.40;70.98
72061;BME280;59925;52.136;5.420;2022-09-01T01:53:18;102319.38;;;13.36;71.42
72061;BME280;59925;52.136;5.420;2022-09-01T01:55:46;102329.59;;;13.34;71.37
72061;BME280;59925;52.136;5.420;2022-09-01T01:58:15;102338.72;;;13.33;71.43
72061;BME280;59925;52.136;5.420;2022-09-01T02:00:42;102336.03;;;13.33;71.43
72061;BME280;59925;52.136;5.420;2022-09-01T02:03:09;102331.47;;;13.33;71.11
72061;BME280;59925;52.136;5.420;2022-09-01T02:05:38;102330.09;;;13.31;71.17
72061;BME280;59925;52.136;5.420;2022-09-01T02:08:07;102332.25;;;13.29;71.79
72061;BME280;59925;52.136;5.420;2022-09-01T02:10:38;102333.81;;;13.25;72.22
72061;BME280;59925;52.136;5.420;2022-09-01T02:13:07;102327.59;;;13.24;72.13
72061;BME280;59925;52.136;5.420;2022-09-01T02:15:40;102325.16;;;13.23;72.09
72061;BME280;59925;52.136;5.420;2022-09-01T02:18:14;102327.28;;;13.21;72.25
72061;BME280;59925;52.136;5.420;2022-09-01T02:20:42;102328.34;;;13.19;72.24
72061;BME280;59925;52.136;5.420;2022-09-01T02:23:10;102329.34;;;13.13;72.86
72061;BME280;59925;52.136;5.420;2022-09-01T02:25:38;102333.34;;;13.11;73.18
72061;BME280;59925;52.136;5.420;2022-09-01T02:28:30;102340.13;;;13.13;73.03
72061;BME280;59925;52.136;5.420;2022-09-01T02:30:58;102335.81;;;13.12;72.98
72061;BME280;59925;52.136;5.420;2022-09-01T02:33:30;102330.16;;;13.14;73.11
72061;BME280;59925;52.136;5.420;2022-09-01T02:35:59;102330.16;;;13.14;73.21
72061;BME280;59925;52.136;5.420;2022-09-01T02:38:27;102327.47;;;13.14;73.49
72061;BME280;59925;52.136;5.420;2022-09-01T02:40:56;102325.84;;;13.13;73.49
72061;BME280;59925;52.136;5.420;2022-09-01T02:43:24;102330.66;;;13.11;73.51
72061;BME280;59925;52.136;5.420;2022-09-01T02:45:55;102329.59;;;13.12;73.41
72061;BME280;59925;52.136;5.420;2022-09-01T02:48:36;102334.97;;;13.12;73.16
72061;BME280;59925;52.136;5.420;2022-09-01T02:51:09;102335.50;;;13.09;73.46
72061;BME280;59925;52.136;5.420;2022-09-01T02:53:38;102334.09;;;13.06;73.49
72061;BME280;59925;52.136;5.420;2022-09-01T02:56:07;102331.66;;;13.05;73.90
72061;BME280;59925;52.136;5.420;2022-09-01T02:58:41;102327.91;;;13.06;73.51
72061;BME280;59925;52.136;5.420;2022-09-01T03:01:21;102327.34;;;13.03;73.50
72061;BME280;59925;52.136;5.420;2022-09-01T03:03:52;102319.25;;;13.03;73.24
72061;BME280;59925;52.136;5.420;2022-09-01T03:06:20;102313.56;;;13.00;73.50
72061;BME280;59925;52.136;5.420;2022-09-01T03:08:50;102321.88;;;12.98;73.82
72061;BME280;59925;52.136;5.420;2022-09-01T03:11:17;102317.00;;;12.95;73.89
72061;BME280;59925;52.136;5.420;2022-09-01T03:13:44;102312.44;;;12.96;73.56
72061;BME280;59925;52.136;5.420;2022-09-01T03:16:11;102321.88;;;12.98;73.70
72061;BME280;59925;52.136;5.420;2022-09-01T03:18:38;102320.81;;;12.99;73.40
72061;BME280;59925;52.136;5.420;2022-09-01T03:21:06;102319.72;;;12.95;73.38
72061;BME280;59925;52.136;5.420;2022-09-01T03:23:35;102320.75;;;12.94;73.47
72061;BME280;59925;52.136;5.420;2022-09-01T03:26:03;102319.94;;;12.94;73.24
72061;BME280;59925;52.136;5.420;2022-09-01T03:28:30;102319.38;;;12.92;73.11
72061;BME280;59925;52.136;5.420;2022-09-01T03:30:57;102321.75;;;12.88;73.13
72061;BME280;59925;52.136;5.420;2022-09-01T03:33:26;102317.41;;;12.87;73.13
72061;BME280;59925;52.136;5.420;2022-09-01T03:35:54;102313.66;;;12.88;72.62
72061;BME280;59925;52.136;5.420;2022-09-01T03:38:22;102317.19;;;12.88;72.92
72061;BME280;59925;52.136;5.420;2022-09-01T03:40:55;102318.25;;;12.87;73.03
72061;BME280;59925;52.136;5.420;2022-09-01T03:43:26;102316.84;;;12.85;72.61
72061;BME280;59925;52.136;5.420;2022-09-01T03:46:01;102317.69;;;12.85;72.57
72061;BME280;59925;52.136;5.420;2022-09-01T03:48:28;102315.22;;;12.84;72.30
72061;BME280;59925;52.136;5.420;2022-09-01T03:50:57;102311.72;;;12.83;72.29
72061;BME280;59925;52.136;5.420;2022-09-01T03:53:30;102306.84;;;12.80;72.53
72061;BME280;59925;52.136;5.420;2022-09-01T03:55:57;102310.84;;;12.78;72.33
72061;BME280;59925;52.136;5.420;2022-09-01T03:58:25;102307.59;;;12.76;72.74
72061;BME280;59925;52.136;5.420;2022-09-01T04:00:55;102308.91;;;12.73;73.38
72061;BME280;59925;52.136;5.420;2022-09-01T04:03:24;102298.94;;;12.73;73.09
72061;BME280;59925;52.136;5.420;2022-09-01T04:05:57;102305.66;;;12.71;73.44
72061;BME280;59925;52.136;5.420;2022-09-01T04:08:24;102309.13;;;12.71;73.49
72061;BME280;59925;52.136;5.420;2022-09-01T04:11:02;102306.13;;;12.68;73.77
72061;BME280;59925;52.136;5.420;2022-09-01T04:13:33;102316.09;;;12.67;73.60
72061;BME280;59925;52.136;5.420;2022-09-01T04:16:01;102313.41;;;12.67;73.70
72061;BME280;59925;52.136;5.420;2022-09-01T04:18:27;102310.38;;;12.64;74.20
72061;BME280;59925;52.136;5.420;2022-09-01T04:20:57;102311.38;;;12.57;74.46
72061;BME280;59925;52.136;5.420;2022-09-01T04:23:30;102309.44;;;12.53;74.38
72061;BME280;59925;52.136;5.420;2022-09-01T04:26:07;102310.97;;;12.49;74.66
72061;BME280;59925;52.136;5.420;2022-09-01T04:28:41;102311.72;;;12.44;74.60
72061;BME280;59925;52.136;5.420;2022-09-01T04:31:14;102314.97;;;12.46;74.69
72061;BME280;59925;52.136;5.420;2022-09-01T04:33:43;102309.81;;;12.45;74.60
72061;BME280;59925;52.136;5.420;2022-09-01T04:38:50;102307.88;;;12.40;74.51
72061;BME280;59925;52.136;5.420;2022-09-01T04:41:21;102303.00;;;12.37;74.59
72061;BME280;59925;52.136;5.420;2022-09-01T04:43:48;102310.72;;;12.33;74.74
72061;BME280;59925;52.136;5.420;2022-09-01T04:46:18;102311.47;;;12.29;75.05
72061;BME280;59925;52.136;5.420;2022-09-01T04:48:46;102306.81;;;12.24;75.17
72061;BME280;59925;52.136;5.420;2022-09-01T04:51:14;102308.38;;;12.20;74.89
72061;BME280;59925;52.136;5.420;2022-09-01T04:53:41;102302.19;;;12.19;74.42
72061;BME280;59925;52.136;5.420;2022-09-01T04:56:16;102303.00;;;12.20;74.37
72061;BME280;59925;52.136;5.420;2022-09-01T04:58:45;102306.25;;;12.22;74.39
72061;BME280;59925;52.136;5.420;2022-09-01T05:01:20;102309.78;;;12.22;74.07
72061;BME280;59925;52.136;5.420;2022-09-01T05:03:47;102312.19;;;12.24;73.67
72061;BME280;59925;52.136;5.420;2022-09-01T05:06:22;102311.94;;;12.25;73.40
72061;BME280;59925;52.136;5.420;2022-09-01T05:08:48;102310.88;;;12.26;73.91
72061;BME280;59925;52.136;5.420;2022-09-01T05:11:15;102315.47;;;12.26;74.21
72061;BME280;59925;52.136;5.420;2022-09-01T05:13:46;102315.22;;;12.27;74.57
72061;BME280;59925;52.136;5.420;2022-09-01T05:16:15;102320.91;;;12.31;74.86
72061;BME280;59925;52.136;5.420;2022-09-01T05:18:50;102315.88;;;12.35;74.36
72061;BME280;59925;52.136;5.420;2022-09-01T05:21:19;102311.63;;;12.39;74.45
72061;BME280;59925;52.136;5.420;2022-09-01T05:23:49;102320.25;;;12.41;74.44
72061;BME280;59925;52.136;5.420;2022-09-01T05:26:22;102323.84;;;12.47;74.13
72061;BME280;59925;52.136;5.420;2022-09-01T05:28:52;102314.81;;;12.53;73.80
72061;BME280;59925;52.136;5.420;2022-09-01T05:31:21;102321.06;;;12.59;73.10
72061;BME280;59925;52.136;5.420;2022-09-01T05:33:49;102314.16;;;12.63;73.29
72061;BME280;59925;52.136;5.420;2022-09-01T05:36:18;102323.28;;;12.62;73.34
72061;BME280;59925;52.136;5.420;2022-09-01T05:38:46;102313.81;;;12.59;73.15
72061;BME280;59925;52.136;5.420;2022-09-01T05:41:16;102318.22;;;12.65;73.29
72061;BME280;59925;52.136;5.420;2022-09-01T05:43:44;102313.97;;;12.69;72.95
72061;BME280;59925;52.136;5.420;2022-09-01T05:46:18;102321.03;;;12.76;72.60
72061;BME280;59925;52.136;5.420;2022-09-01T05:48:47;102324.38;;;12.83;72.40
72061;BME280;59925;52.136;5.420;2022-09-01T05:51:17;102325.03;;;13.34;73.31
72061;BME280;59925;52.136;5.420;2022-09-01T05:54:04;102322.66;;;15.01;70.93
72061;BME280;59925;52.136;5.420;2022-09-01T05:56:35;102320.22;;;16.09;67.35
72061;BME280;59925;52.136;5.420;2022-09-01T05:59:09;102318.47;;;16.86;64.29
72061;BME280;59925;52.136;5.420;2022-09-01T06:01:53;102314.06;;;17.11;61.77
72061;BME280;59925;52.136;5.420;2022-09-01T06:04:21;102327.25;;;16.21;62.21
72061;BME280;59925;52.136;5.420;2022-09-01T06:06:48;102325.81;;;15.51;63.58
72061;BME280;59925;52.136;5.420;2022-09-01T06:09:45;102330.50;;;15.08;64.76
72061;BME280;59925;52.136;5.420;2022-09-01T06:12:13;102331.50;;;14.91;66.03
72061;BME280;59925;52.136;5.420;2022-09-01T06:14:46;102336.91;;;14.91;66.40
72061;BME280;59925;52.136;5.420;2022-09-01T06:17:13;102330.03;;;15.21;66.96
72061;BME280;59925;52.136;5.420;2022-09-01T06:19:42;102328.34;;;16.35;65.38
72061;BME280;59925;52.136;5.420;2022-09-01T06:22:08;102327.03;;;17.24;61.26
72061;BME280;59925;52.136;5.420;2022-09-01T06:24:36;102327.97;;;16.83;60.48
72061;BME280;59925;52.136;5.420;2022-09-01T06:27:08;102326.97;;;16.22;61.87
72061;BME280;59925;52.136;5.420;2022-09-01T06:29:38;102329.97;;;15.95;63.02
72061;BME280;59925;52.136;5.420;2022-09-01T06:32:06;102321.25;;;15.83;63.19
72061;BME280;59925;52.136;5.420;2022-09-01T06:34:38;102334.22;;;15.81;63.61
72061;BME280;59925;52.136;5.420;2022-09-01T06:37:04;102329.66;;;15.81;63.56
72061;BME280;59925;52.136;5.420;2022-09-01T06:39:32;102338.56;;;15.82;63.56
72061;BME280;59925;52.136;5.420;2022-09-01T06:41:59;102335.66;;;15.93;63.52
72061;BME280;59925;52.136;5.420;2022-09-01T06:44:31;102332.66;;;15.95;63.00
72061;BME280;59925;52.136;5.420;2022-09-01T06:46:57;102334.84;;;15.98;62.57
72061;BME280;59925;52.136;5.420;2022-09-01T06:49:27;102342.13;;;16.13;62.54
72061;BME280;59925;52.136;5.420;2022-09-01T06:52:01;102340.78;;;16.26;62.10
72061;BME280;59925;52.136;5.420;2022-09-01T06:54:28;102343.19;;;16.38;62.14
72061;BME280;59925;52.136;5.420;2022-09-01T06:56:56;102345.34;;;16.51;61.63
72061;BME280;59925;52.136;5.420;2022-09-01T06:59:27;102347.25;;;16.56;60.98
72061;BME280;59925;52.136;5.420;2022-09-01T07:02:00;102347.25;;;16.66;60.84
72061;BME280;59925;52.136;5.420;2022-09-01T07:04:31;102337.72;;;16.79;60.09
72061;BME280;59925;52.136;5.420;2022-09-01T07:06:57;102351.22;;;16.90;60.10
72061;BME280;59925;52.136;5.420;2022-09-01T07:09:45;102347.16;;;17.03;59.17
72061;BME280;59925;52.136;5.420;2022-09-01T07:12:31;102348.47;;;17.15;59.00
72061;BME280;59925;52.136;5.420;2022-09-01T07:14:59;102354.41;;;17.23;58.18
72061;BME280;59925;52.136;5.420;2022-09-01T07:17:48;102352.97;;;17.41;58.12
72061;BME280;59925;52.136;5.420;2022-09-01T07:20:16;102351.81;;;17.52;58.05
72061;BME280;59925;52.136;5.420;2022-09-01T07:22:53;102349.88;;;17.63;57.84
72061;BME280;59925;52.136;5.420;2022-09-01T07:25:37;102343.81;;;17.76;57.25
72061;BME280;59925;52.136;5.420;2022-09-01T07:28:27;102357.59;;;17.85;56.91
72061;BME280;59925;52.136;5.420;2022-09-01T07:31:05;102352.66;;;17.92;56.54
72061;BME280;59925;52.136;5.420;2022-09-01T07:33:55;102344.38;;;18.13;57.11
72061;BME280;59925;52.136;5.420;2022-09-01T07:36:44;102345.19;;;18.43;56.47
72061;BME280;59925;52.136;5.420;2022-09-01T07:39:30;102351.13;;;18.50;54.14
72061;BME280;59925;52.136;5.420;2022-09-01T07:42:16;102346.22;;;18.52;54.01
72061;BME280;59925;52.136;5.420;2022-09-01T07:45:03;102347.63;;;18.74;53.94
72061;BME280;59925;52.136;5.420;2022-09-01T07:47:54;102347.19;;;18.86;54.92
72061;BME280;59925;52.136;5.420;2022-09-01T07:50:21;102354.31;;;19.06;54.36
72061;BME280;59925;52.136;5.420;2022-09-01T07:53:06;102354.00;;;19.32;53.60
72061;BME280;59925;52.136;5.420;2022-09-01T07:55:34;102360.28;;;19.52;53.37
72061;BME280;59925;52.136;5.420;2022-09-01T07:58:00;102351.31;;;19.70;52.30
72061;BME280;59925;52.136;5.420;2022-09-01T08:00:27;102349.09;;;19.72;52.52
72061;BME280;59925;52.136;5.420;2022-09-01T08:02:57;102351.97;;;19.81;52.11
72061;BME280;59925;52.136;5.420;2022-09-01T08:05:24;102349.94;;;19.92;51.16
72061;BME280;59925;52.136;5.420;2022-09-01T08:07:53;102352.56;;;19.97;49.80
72061;BME280;59925;52.136;5.420;2022-09-01T08:10:19;102351.75;;;19.97;50.00
72061;BME280;59925;52.136;5.420;2022-09-01T08:12:46;102350.69;;;20.12;50.88
72061;BME280;59925;52.136;5.420;2022-09-01T08:15:21;102341.66;;;20.30;49.65
72061;BME280;59925;52.136;5.420;2022-09-01T08:18:07;102354.19;;;20.31;49.47
72061;BME280;59925;52.136;5.420;2022-09-01T08:20:38;102344.53;;;20.53;49.82
72061;BME280;59925;52.136;5.420;2022-09-01T08:23:14;102348.00;;;20.73;49.64
72061;BME280;59925;52.136;5.420;2022-09-01T08:25:43;102349.22;;;20.94;49.30
72061;BME280;59925;52.136;5.420;2022-09-01T08:28:11;102345.97;;;21.20;50.17
72061;BME280;59925;52.136;5.420;2022-09-01T08:30:40;102344.59;;;21.46;48.99
72061;BME280;59925;52.136;5.420;2022-09-01T08:33:17;102340.13;;;21.64;48.14
72061;BME280;59925;52.136;5.420;2022-09-01T08:35:47;102348.38;;;21.72;47.28
72061;BME280;59925;52.136;5.420;2022-09-01T08:38:14;102355.66;;;21.77;46.57
72061;BME280;59925;52.136;5.420;2022-09-01T08:40:42;102352.81;;;21.82;44.82
72061;BME280;59925;52.136;5.420;2022-09-01T08:43:32;102337.41;;;21.86;45.78
72061;BME280;59925;52.136;5.420;2022-09-01T08:46:33;102341.25;;;22.08;46.00
72061;BME280;59925;52.136;5.420;2022-09-01T08:49:06;102338.56;;;22.17;44.80
72061;BME280;59925;52.136;5.420;2022-09-01T08:51:55;102343.31;;;22.34;45.64
72061;BME280;59925;52.136;5.420;2022-09-01T08:54:48;102333.66;;;22.59;44.73
72061;BME280;59925;52.136;5.420;2022-09-01T08:57:19;102340.28;;;22.67;43.40
72061;BME280;59925;52.136;5.420;2022-09-01T08:59:46;102333.41;;;22.87;42.41
72061;BME280;59925;52.136;5.420;2022-09-01T09:04:58;102333.50;;;23.14;42.44
72061;BME280;59925;52.136;5.420;2022-09-01T09:10:21;102321.31;;;23.37;40.82
72061;BME280;59925;52.136;5.420;2022-09-01T09:16:15;102327.09;;;23.80;40.13
72061;BME280;59925;52.136;5.420;2022-09-01T09:18:32;102325.34;;;23.75;39.33
72061;BME280;59925;52.136;5.420;2022-09-01T09:21:17;102326.47;;;23.65;39.17
72061;BME280;59925;52.136;5.420;2022-09-01T09:23:47;102332.56;;;23.62;39.17
72061;BME280;59925;52.136;5.420;2022-09-01T09:26:15;102319.22;;;23.61;38.70
72061;BME280;59925;52.136;5.420;2022-09-01T09:28:48;102320.78;;;23.79;38.32
72061;BME280;59925;52.136;5.420;2022-09-01T09:31:32;102314.78;;;24.21;39.40
72061;BME280;59925;52.136;5.420;2022-09-01T09:34:00;102307.59;;;24.38;38.05
72061;BME280;59925;52.136;5.420;2022-09-01T09:36:33;102308.91;;;24.79;38.02
72061;BME280;59925;52.136;5.420;2022-09-01T09:39:10;102304.88;;;24.76;36.83
72061;BME280;59925;52.136;5.420;2022-09-01T09:41:39;102297.91;;;24.79;37.23
72061;BME280;59925;52.136;5.420;2022-09-01T09:44:19;102301.34;;;24.97;35.78
72061;BME280;59925;52.136;5.420;2022-09-01T09:46:48;102299.13;;;24.90;35.90
72061;BME280;59925;52.136;5.420;2022-09-01T09:54:37;102292.59;;;25.04;35.80
72061;BME280;59925;52.136;5.420;2022-09-01T10:04:59;102283.16;;;25.90;34.02
72061;BME280;59925;52.136;5.420;2022-09-01T10:10:00;102276.91;;;26.14;35.23
72061;BME280;59925;52.136;5.420;2022-09-01T10:12:28;102273.81;;;26.40;32.67
72061;BME280;59925;52.136;5.420;2022-09-01T10:15:00;102265.81;;;26.35;32.66
72061;BME280;59925;52.136;5.420;2022-09-01T10:17:42;102265.13;;;26.38;32.45
72061;BME280;59925;52.136;5.420;2022-09-01T10:20:15;102264.31;;;26.50;32.24
72061;BME280;59925;52.136;5.420;2022-09-01T10:22:43;102259.50;;;26.59;31.75
72061;BME280;59925;52.136;5.420;2022-09-01T10:25:16;102270.03;;;26.82;31.78
72061;BME280;59925;52.136;5.420;2022-09-01T10:27:49;102264.34;;;27.03;31.85
72061;BME280;59925;52.136;5.420;2022-09-01T10:30:21;102259.53;;;27.13;31.75
72061;BME280;59925;52.136;5.420;2022-09-01T10:32:55;102263.19;;;27.33;31.27
72061;BME280;59925;52.136;5.420;2022-09-01T10:35:34;102258.59;;;27.37;31.78
72061;BME280;59925;52.136;5.420;2022-09-01T10:38:08;102260.44;;;27.45;31.52
72061;BME280;59925;52.136;5.420;2022-09-01T10:40:39;102255.41;;;27.35;28.63
72061;BME280;59925;52.136;5.420;2022-09-01T10:45:53;102260.72;;;27.56;30.85
72061;BME280;59925;52.136;5.420;2022-09-01T10:48:31;102263.00;;;27.98;30.67
72061;BME280;59925;52.136;5.420;2022-09-01T10:56:42;102247.88;;;28.24;29.49
72061;BME280;59925;52.136;5.420;2022-09-01T11:07:31;102232.03;;;28.73;28.95
72061;BME280;59925;52.136;5.420;2022-09-01T11:10:27;102236.94;;;28.99;28.90
72061;BME280;59925;52.136;5.420;2022-09-01T11:13:23;102232.94;;;28.97;27.25
72061;BME280;59925;52.136;5.420;2022-09-01T11:15:54;102233.59;;;28.90;27.53
72061;BME280;59925;52.136;5.420;2022-09-01T11:18:28;102235.28;;;28.95;27.17
72061;BME280;59925;52.136;5.420;2022-09-01T11:21:25;102232.84;;;29.13;27.35
72061;BME280;59925;52.136;5.420;2022-09-01T11:27:07;102237.53;;;28.89;26.12
72061;BME280;59925;52.136;5.420;2022-09-01T11:29:59;102240.16;;;28.14;26.81
72061;BME280;59925;52.136;5.420;2022-09-01T11:32:33;102228.91;;;28.39;26.62
72061;BME280;59925;52.136;5.420;2022-09-01T11:35:15;102227.84;;;28.79;26.05
72061;BME280;59925;52.136;5.420;2022-09-01T11:37:47;102228.72;;;28.83;27.67
72061;BME280;59925;52.136;5.420;2022-09-01T11:40:19;102235.31;;;29.18;26.21
72061;BME280;59925;52.136;5.420;2022-09-01T11:42:47;102222.16;;;29.31;26.64
72061;BME280;59925;52.136;5.420;2022-09-01T11:45:19;102215.22;;;29.37;26.97
72061;BME280;59925;52.136;5.420;2022-09-01T11:47:50;102223.81;;;29.55;25.38
72061;BME280;59925;52.136;5.420;2022-09-01T11:50:25;102221.72;;;29.29;26.51
72061;BME280;59925;52.136;5.420;2022-09-01T11:53:07;102220.28;;;29.35;25.44
72061;BME280;59925;52.136;5.420;2022-09-01T11:55:38;102216.84;;;29.22;25.33
72061;BME280;59925;52.136;5.420;2022-09-01T11:58:10;102207.47;;;29.46;25.28
72061;BME280;59925;52.136;5.420;2022-09-01T12:00:43;102205.94;;;29.72;25.36
72061;BME280;59925;52.136;5.420;2022-09-01T12:03:28;102205.81;;;29.65;24.86
72061;BME280;59925;52.136;5.420;2022-09-01T12:05:59;102196.88;;;29.48;24.93
72061;BME280;59925;52.136;5.420;2022-09-01T12:08:29;102205.00;;;29.88;25.78
72061;BME280;59925;52.136;5.420;2022-09-01T12:14:10;102190.88;;;30.20;26.05
72061;BME280;59925;52.136;5.420;2022-09-01T12:16:56;102199.31;;;30.27;24.94
72061;BME280;59925;52.136;5.420;2022-09-01T12:19:26;102195.09;;;30.37;25.75
72061;BME280;59925;52.136;5.420;2022-09-01T12:22:03;102193.03;;;30.30;24.70
72061;BME280;59925;52.136;5.420;2022-09-01T12:24:34;102196.63;;;29.84;25.41
72061;BME280;59925;52.136;5.420;2022-09-01T12:27:00;102193.00;;;29.76;26.31
72061;BME280;59925;52.136;5.420;2022-09-01T12:29:28;102182.03;;;30.07;25.41
72061;BME280;59925;52.136;5.420;2022-09-01T12:31:58;102186.81;;;30.37;24.00
72061;BME280;59925;52.136;5.420;2022-09-01T12:34:47;102183.25;;;30.09;25.53
72061;BME280;59925;52.136;5.420;2022-09-01T12:37:25;102183.16;;;29.56;24.86
72061;BME280;59925;52.136;5.420;2022-09-01T12:39:54;102183.16;;;30.02;25.54
72061;BME280;59925;52.136;5.420;2022-09-01T12:42:24;102172.78;;;30.53;25.13
72061;BME280;59925;52.136;5.420;2022-09-01T12:52:48;102174.91;;;29.82;24.41
72061;BME280;59925;52.136;5.420;2022-09-01T12:55:20;102170.47;;;30.28;25.80
72061;BME280;59925;52.136;5.420;2022-09-01T12:58:08;102177.03;;;30.47;24.32
72061;BME280;59925;52.136;5.420;2022-09-01T13:00:52;102161.31;;;30.24;24.43
72061;BME280;59925;52.136;5.420;2022-09-01T13:03:19;102160.81;;;30.15;25.14
72061;BME280;59925;52.136;5.420;2022-09-01T13:05:52;102161.06;;;30.06;24.61
72061;BME280;59925;52.136;5.420;2022-09-01T13:08:22;102161.19;;;30.43;24.70
72061;BME280;59925;52.136;5.420;2022-09-01T13:11:14;102167.63;;;30.82;25.36
72061;BME280;59925;52.136;5.420;2022-09-01T13:13:43;102162.16;;;30.89;24.64
72061;BME280;59925;52.136;5.420;2022-09-01T13:16:10;102148.50;;;31.11;25.13
72061;BME280;59925;52.136;5.420;2022-09-01T13:18:40;102160.94;;;31.24;23.47
72061;BME280;59925;52.136;5.420;2022-09-01T13:21:27;102148.13;;;30.75;23.63
72061;BME280;59925;52.136;5.420;2022-09-01T13:23:54;102151.34;;;30.46;24.20
72061;BME280;59925;52.136;5.420;2022-09-01T13:26:21;102136.81;;;30.53;24.21
72061;BME280;59925;52.136;5.420;2022-09-01T13:28:47;102151.88;;;30.55;23.63
72061;BME280;59925;52.136;5.420;2022-09-01T13:31:14;102141.97;;;30.88;24.92
72061;BME280;59925;52.136;5.420;2022-09-01T13:33:58;102135.94;;;31.17;24.54
72061;BME280;59925;52.136;5.420;2022-09-01T13:36:44;102131.47;;;31.50;23.58
72061;BME280;59925;52.136;5.420;2022-09-01T13:39:18;102134.81;;;31.25;23.63
72061;BME280;59925;52.136;5.420;2022-09-01T13:41:46;102132.75;;;31.15;22.70
72061;BME280;59925;52.136;5.420;2022-09-01T13:44:12;102132.50;;;30.90;22.69
72061;BME280;59925;52.136;5.420;2022-09-01T13:46:39;102136.53;;;30.99;23.68
72061;BME280;59925;52.136;5.420;2022-09-01T13:49:26;102123.34;;;30.85;24.50
72061;BME280;59925;52.136;5.420;2022-09-01T13:52:13;102119.72;;;31.15;24.03
72061;BME280;59925;52.136;5.420;2022-09-01T13:54:39;102120.50;;;31.16;23.52
72061;BME280;59925;52.136;5.420;2022-09-01T13:57:06;102111.03;;;31.17;22.89
72061;BME280;59925;52.136;5.420;2022-09-01T13:59:32;102116.00;;;31.04;24.37
72061;BME280;59925;52.136;5.420;2022-09-01T14:01:58;102116.69;;;31.31;23.51
72061;BME280;59925;52.136;5.420;2022-09-01T14:04:26;102113.97;;;31.39;23.82
72061;BME280;59925;52.136;5.420;2022-09-01T14:06:53;102106.50;;;31.46;24.38
72061;BME280;59925;52.136;5.420;2022-09-01T14:09:20;102103.09;;;31.64;24.79
72061;BME280;59925;52.136;5.420;2022-09-01T14:11:46;102108.56;;;31.57;22.16
72061;BME280;59925;52.136;5.420;2022-09-01T14:14:13;102100.09;;;31.35;23.45
72061;BME280;59925;52.136;5.420;2022-09-01T14:16:39;102096.59;;;31.45;23.88
72061;BME280;59925;52.136;5.420;2022-09-01T14:19:06;102104.56;;;31.47;23.25
72061;BME280;59925;52.136;5.420;2022-09-01T14:21:32;102095.38;;;31.36;22.61